createdAt,value
2019-03-31T00:01:08.028Z,49.33
2019-03-31T00:03:33.121Z,52.10
2019-03-31T00:06:02.728Z,50.03
2019-03-31T00:08:32.348Z,50.33
2019-03-31T00:11:01.981Z,48.35
2019-03-31T00:13:31.855Z,51.13
2019-03-31T00:16:01.562Z,50.30
2019-03-31T00:18:31.175Z,49.88
2019-03-31T00:21:00.790Z,51.25
2019-03-31T00:23:30.380Z,49.08
2019-03-31T00:26:00.010Z,52.45
2019-03-31T00:28:29.609Z,50.17
2019-03-31T00:30:59.232Z,48.23
2019-03-31T00:33:29.218Z,45.33
2019-03-31T00:35:58.822Z,49.13
2019-03-31T00:38:28.494Z,47.67
2019-03-31T00:40:58.380Z,50.83
2019-03-31T00:43:27.980Z,48.78
2019-03-31T00:45:57.576Z,46.83
2019-03-31T00:48:27.196Z,49.40
2019-03-31T00:50:56.793Z,49.27
2019-03-31T00:53:26.409Z,48.00
2019-03-31T00:55:56.023Z,51.33
2019-03-31T00:58:25.632Z,49.23
2019-03-31T01:00:59.651Z,48.17
2019-03-31T01:03:30.030Z,47.65
2019-03-31T01:05:59.697Z,45.60
2019-03-31T01:08:33.145Z,47.45
2019-03-31T01:11:08.490Z,47.80
2019-03-31T01:13:38.232Z,46.35
2019-03-31T01:16:08.099Z,42.55
2019-03-31T01:18:38.139Z,43.25
2019-03-31T01:21:07.813Z,46.02
2019-03-31T01:23:37.504Z,43.80
2019-03-31T01:26:07.562Z,44.23
2019-03-31T01:28:37.185Z,41.77
2019-03-31T01:31:06.777Z,43.02
2019-03-31T01:33:36.744Z,43.55
2019-03-31T01:36:06.418Z,41.18
2019-03-31T01:38:36.135Z,43.45
2019-03-31T01:41:06.151Z,38.80
2019-03-31T01:43:36.003Z,42.43
2019-03-31T01:46:07.247Z,40.20
2019-03-31T01:48:36.980Z,39.33
2019-03-31T01:51:07.237Z,38.20
2019-03-31T01:53:36.844Z,40.08
2019-03-31T01:56:06.722Z,41.08
2019-03-31T01:58:36.328Z,37.88
2019-03-31T02:01:08.429Z,39.18
2019-03-31T02:03:38.457Z,36.95
2019-03-31T02:06:08.120Z,35.73
2019-03-31T02:08:37.715Z,33.13
2019-03-31T02:11:07.601Z,35.28
2019-03-31T02:13:37.612Z,35.28
2019-03-31T02:16:07.473Z,33.23
2019-03-31T02:18:37.101Z,34.25
2019-03-31T02:21:06.763Z,32.78
2019-03-31T02:23:36.373Z,32.23
2019-03-31T02:26:05.993Z,29.42
2019-03-31T02:28:35.598Z,29.00
2019-03-31T02:31:05.192Z,25.92
2019-03-31T02:33:34.896Z,28.40
2019-03-31T02:36:04.773Z,26.40
2019-03-31T02:38:34.378Z,27.20
2019-03-31T02:41:04.047Z,25.00
2019-03-31T02:43:33.678Z,23.15
2019-03-31T02:46:03.303Z,24.25
2019-03-31T02:48:32.895Z,23.47
2019-03-31T02:51:02.670Z,23.50
2019-03-31T02:53:32.764Z,21.62
2019-03-31T02:56:03.899Z,21.68
2019-03-31T02:58:34.799Z,23.77
2019-03-31T03:01:05.002Z,21.23
2019-03-31T03:03:38.394Z,23.00
2019-03-31T03:06:10.378Z,18.77
2019-03-31T03:08:42.860Z,21.40
2019-03-31T03:11:16.075Z,19.90
2019-03-31T03:13:49.867Z,16.15
2019-03-31T03:16:20.693Z,19.05
2019-03-31T03:18:50.878Z,18.90
2019-03-31T03:21:24.084Z,18.00
2019-03-31T03:23:52.025Z,15.93
2019-03-31T03:26:21.811Z,17.62
2019-03-31T03:28:51.585Z,14.65
2019-03-31T03:31:21.291Z,16.37
2019-03-31T03:33:51.271Z,17.32
2019-03-31T03:36:20.860Z,15.53
2019-03-31T03:38:50.535Z,15.83
2019-03-31T03:41:20.756Z,14.95
2019-03-31T03:43:55.953Z,15.10
2019-03-31T03:46:22.265Z,15.68
2019-03-31T03:48:52.190Z,15.60
2019-03-31T03:51:22.087Z,14.30
2019-03-31T03:53:51.798Z,13.32
2019-03-31T03:56:21.424Z,11.35
2019-03-31T03:58:51.114Z,13.72
2019-03-31T04:01:21.046Z,11.80
2019-03-31T04:03:50.665Z,12.78
2019-03-31T04:06:20.403Z,13.00
2019-03-31T04:08:50.713Z,13.98
2019-03-31T04:11:22.923Z,12.98
2019-03-31T04:13:52.927Z,12.98
2019-03-31T04:16:22.525Z,12.68
2019-03-31T04:18:52.417Z,14.50
2019-03-31T04:21:22.075Z,15.00
2019-03-31T04:23:51.846Z,12.07
2019-03-31T04:32:23.350Z,12.23
2019-03-31T04:34:52.952Z,12.50
2019-03-31T04:37:22.641Z,11.43
2019-03-31T04:39:52.247Z,13.78
2019-03-31T04:42:21.843Z,11.00
2019-03-31T04:44:51.472Z,11.80
2019-03-31T04:47:21.064Z,12.28
2019-03-31T04:49:50.740Z,12.07
2019-03-31T04:52:20.377Z,10.95
2019-03-31T04:54:49.982Z,12.05
2019-03-31T04:57:19.586Z,12.47
2019-03-31T04:59:49.451Z,12.40
2019-03-31T05:02:19.047Z,13.03
2019-03-31T05:04:48.644Z,12.43
2019-03-31T05:07:18.360Z,11.60
2019-03-31T05:09:47.960Z,12.63
2019-03-31T05:12:17.561Z,12.65
2019-03-31T05:14:47.178Z,11.15
2019-03-31T05:17:17.115Z,12.33
2019-03-31T05:19:46.708Z,10.32
2019-03-31T05:22:16.420Z,8.83
2019-03-31T05:24:46.021Z,10.18
2019-03-31T05:27:15.889Z,9.33
2019-03-31T05:29:45.507Z,9.33
2019-03-31T05:32:15.112Z,9.68
2019-03-31T05:34:44.712Z,8.35
2019-03-31T05:37:14.628Z,7.87
2019-03-31T05:39:44.231Z,9.08
2019-03-31T05:42:13.844Z,8.20
2019-03-31T05:44:43.530Z,8.68
2019-03-31T05:47:13.451Z,8.28
2019-03-31T05:49:43.323Z,7.60
2019-03-31T05:52:12.969Z,7.62
2019-03-31T05:54:42.642Z,7.87
2019-03-31T05:57:12.523Z,9.55
2019-03-31T05:59:42.149Z,8.75
2019-03-31T06:02:11.742Z,9.78
2019-03-31T06:04:41.626Z,9.03
2019-03-31T06:07:11.252Z,9.65
2019-03-31T06:09:40.855Z,9.43
2019-03-31T06:12:10.534Z,10.05
2019-03-31T06:14:40.408Z,10.55
2019-03-31T06:17:10.009Z,10.43
2019-03-31T06:19:39.937Z,9.80
2019-03-31T06:22:09.686Z,9.45
2019-03-31T06:24:39.268Z,8.98
2019-03-31T06:27:08.868Z,8.83
2019-03-31T06:29:38.497Z,9.05
2019-03-31T06:32:08.144Z,8.35
2019-03-31T06:34:47.512Z,9.60
2019-03-31T06:37:09.293Z,7.47
2019-03-31T06:39:38.877Z,7.78
2019-03-31T06:42:08.490Z,7.08
2019-03-31T06:44:38.367Z,6.87
2019-03-31T06:47:07.980Z,6.42
2019-03-31T06:49:37.576Z,6.83
2019-03-31T06:52:07.221Z,6.05
2019-03-31T06:54:36.818Z,5.90
2019-03-31T06:57:06.529Z,5.55
2019-03-31T06:59:36.191Z,4.62
2019-03-31T07:02:05.858Z,4.78
2019-03-31T07:04:35.477Z,5.08
2019-03-31T07:07:06.456Z,4.05
2019-03-31T07:09:36.094Z,4.55
2019-03-31T07:12:05.784Z,4.00
2019-03-31T07:14:35.672Z,3.60
2019-03-31T07:17:05.280Z,4.35
2019-03-31T07:19:34.879Z,3.62
2019-03-31T07:22:04.488Z,3.70
2019-03-31T07:24:34.152Z,3.72
2019-03-31T07:27:03.757Z,3.70
2019-03-31T07:29:33.473Z,3.40
2019-03-31T07:32:03.077Z,3.22
2019-03-31T07:34:33.079Z,3.10
2019-03-31T07:37:02.758Z,3.37
2019-03-31T07:39:32.445Z,3.15
2019-03-31T07:42:02.347Z,2.80
2019-03-31T07:44:32.018Z,3.72
2019-03-31T07:47:01.612Z,3.55
2019-03-31T07:49:31.200Z,2.67
2019-03-31T07:52:00.824Z,2.72
2019-03-31T07:54:30.433Z,2.30
2019-03-31T07:57:00.054Z,2.30
2019-03-31T07:59:29.941Z,1.98
2019-03-31T08:01:59.544Z,2.30
2019-03-31T08:04:29.152Z,1.82
2019-03-31T08:06:58.839Z,2.55
2019-03-31T08:09:28.432Z,2.12
2019-03-31T08:11:58.021Z,1.77
2019-03-31T08:14:27.830Z,2.50
2019-03-31T08:16:59.314Z,2.25
2019-03-31T08:19:29.296Z,1.80
2019-03-31T08:21:59.175Z,1.37
2019-03-31T08:24:30.708Z,1.80
2019-03-31T08:27:00.345Z,1.65
2019-03-31T08:29:29.965Z,1.57
2019-03-31T08:31:59.581Z,2.02
2019-03-31T08:34:29.412Z,1.98
2019-03-31T08:36:59.286Z,1.90
2019-03-31T08:39:29.124Z,2.08
2019-03-31T08:41:59.008Z,2.33
2019-03-31T08:44:29.025Z,2.00
2019-03-31T08:46:58.715Z,1.70
2019-03-31T08:49:28.310Z,1.98
2019-03-31T08:51:57.939Z,2.00
2019-03-31T08:54:27.531Z,2.58
2019-03-31T08:56:57.226Z,2.45
2019-03-31T08:59:26.864Z,2.22
2019-03-31T09:01:56.462Z,2.70
2019-03-31T09:04:26.616Z,2.22
2019-03-31T09:06:56.226Z,2.45
2019-03-31T09:09:25.902Z,1.92
2019-03-31T09:11:55.500Z,2.17
2019-03-31T09:14:25.140Z,3.17
2019-03-31T09:16:54.740Z,2.00
2019-03-31T09:19:24.336Z,2.55
2019-03-31T09:21:53.967Z,2.47
2019-03-31T09:24:23.580Z,2.22
2019-03-31T09:26:53.161Z,2.00
2019-03-31T09:29:23.751Z,3.20
2019-03-31T09:31:53.369Z,2.60
2019-03-31T09:34:23.232Z,2.27
2019-03-31T09:36:53.111Z,1.75
2019-03-31T09:39:22.706Z,1.67
2019-03-31T09:41:52.378Z,2.10
2019-03-31T09:44:22.003Z,2.20
2019-03-31T09:46:51.618Z,2.90
2019-03-31T09:49:21.444Z,2.60
2019-03-31T09:51:51.066Z,1.80
2019-03-31T09:54:21.009Z,2.27
2019-03-31T09:56:50.626Z,1.90
2019-03-31T09:59:20.477Z,1.90
2019-03-31T10:01:50.092Z,2.02
2019-03-31T10:04:19.685Z,1.90
2019-03-31T10:06:49.489Z,1.87
2019-03-31T10:09:19.061Z,2.30
2019-03-31T10:11:48.757Z,1.62
2019-03-31T10:14:18.353Z,1.85
2019-03-31T10:16:48.225Z,1.80
2019-03-31T10:19:17.846Z,2.20
2019-03-31T10:21:47.739Z,1.52
2019-03-31T10:24:17.344Z,1.85
2019-03-31T10:26:47.004Z,2.00
2019-03-31T10:29:16.627Z,2.22
2019-03-31T10:31:46.505Z,2.62
2019-03-31T10:34:16.461Z,2.00
2019-03-31T10:36:46.060Z,2.47
2019-03-31T10:39:15.654Z,2.45
2019-03-31T10:41:45.361Z,2.20
2019-03-31T10:44:14.962Z,2.47
2019-03-31T10:46:44.583Z,2.47
2019-03-31T10:49:14.273Z,2.17
2019-03-31T10:51:43.930Z,2.02
2019-03-31T10:54:13.592Z,1.80
2019-03-31T10:56:43.507Z,2.98
2019-03-31T10:59:13.204Z,2.02
2019-03-31T11:01:42.792Z,1.80
2019-03-31T11:04:12.434Z,1.98
2019-03-31T11:06:42.105Z,2.02
2019-03-31T11:09:11.736Z,2.10
2019-03-31T11:11:42.360Z,1.57
2019-03-31T11:14:11.963Z,2.70
2019-03-31T11:16:41.564Z,2.77
2019-03-31T11:19:11.192Z,2.20
2019-03-31T11:21:54.707Z,2.30
2019-03-31T11:24:24.306Z,2.25
2019-03-31T11:26:53.920Z,1.85
2019-03-31T11:29:23.533Z,1.85
2019-03-31T11:31:53.427Z,2.50
2019-03-31T11:34:23.061Z,2.08
2019-03-31T11:36:52.901Z,1.60
2019-03-31T11:39:22.502Z,1.65
2019-03-31T11:41:52.109Z,1.50
2019-03-31T11:44:21.731Z,1.92
2019-03-31T11:46:51.318Z,1.50
2019-03-31T11:49:21.362Z,2.15
2019-03-31T11:51:51.306Z,2.22
2019-03-31T11:54:21.003Z,2.55
2019-03-31T11:56:52.036Z,1.72
2019-03-31T11:59:21.737Z,1.90
2019-03-31T12:01:51.388Z,2.17
2019-03-31T12:04:20.967Z,1.75
2019-03-31T12:06:50.579Z,1.85
2019-03-31T12:09:20.177Z,1.92
2019-03-31T12:11:49.794Z,1.92
2019-03-31T12:14:19.631Z,1.52
2019-03-31T12:16:49.476Z,1.32
2019-03-31T12:19:19.100Z,2.42
2019-03-31T12:21:48.696Z,2.00
2019-03-31T12:24:18.313Z,2.17
2019-03-31T12:26:47.926Z,1.85
2019-03-31T12:29:17.531Z,1.77
2019-03-31T12:31:47.310Z,1.72
2019-03-31T12:34:17.186Z,1.62
2019-03-31T12:36:46.785Z,2.00
2019-03-31T12:39:16.420Z,2.12
2019-03-31T12:41:46.089Z,1.37
2019-03-31T12:44:15.685Z,2.00
2019-03-31T12:46:45.298Z,1.92
2019-03-31T12:49:14.996Z,2.47
2019-03-31T12:51:44.827Z,1.50
2019-03-31T12:54:14.457Z,1.70
2019-03-31T12:56:44.065Z,1.52
2019-03-31T12:59:13.680Z,1.77
2019-03-31T13:01:43.294Z,1.82
2019-03-31T13:04:12.984Z,1.45
2019-03-31T13:06:42.577Z,2.02
2019-03-31T13:09:12.282Z,1.37
2019-03-31T13:11:41.871Z,1.35
2019-03-31T13:14:11.875Z,1.55
2019-03-31T13:16:41.779Z,1.87
2019-03-31T13:19:11.537Z,1.92
2019-03-31T13:21:41.133Z,1.80
2019-03-31T13:24:11.059Z,1.75
2019-03-31T13:26:40.684Z,1.77
2019-03-31T13:29:10.290Z,2.30
2019-03-31T13:31:39.898Z,1.52
2019-03-31T13:34:09.522Z,1.65
2019-03-31T13:36:39.193Z,2.05
2019-03-31T13:39:09.078Z,2.20
2019-03-31T13:41:38.788Z,1.92
2019-03-31T13:44:08.482Z,1.80
2019-03-31T13:46:38.083Z,1.80
2019-03-31T13:49:07.688Z,2.35
2019-03-31T13:51:37.291Z,1.72
2019-03-31T13:54:06.910Z,2.40
2019-03-31T13:56:37.221Z,2.30
2019-03-31T13:59:09.087Z,1.92
2019-03-31T14:01:38.480Z,1.45
2019-03-31T14:04:08.114Z,1.98
2019-03-31T14:06:37.731Z,1.85
2019-03-31T14:09:09.953Z,2.20
2019-03-31T14:11:39.562Z,2.15
2019-03-31T14:14:09.485Z,1.62
2019-03-31T14:16:39.359Z,1.80
2019-03-31T14:19:08.939Z,1.92
2019-03-31T14:21:40.114Z,1.85
2019-03-31T14:24:09.828Z,2.08
2019-03-31T14:26:39.581Z,1.82
2019-03-31T14:29:09.206Z,1.27
2019-03-31T14:31:38.822Z,1.87
2019-03-31T14:34:09.973Z,2.00
2019-03-31T14:36:39.848Z,2.30
2019-03-31T14:39:10.295Z,1.77
2019-03-31T14:41:39.927Z,1.70
2019-03-31T14:44:09.537Z,1.85
2019-03-31T14:46:39.256Z,1.75
2019-03-31T14:49:08.848Z,2.22
2019-03-31T14:51:38.439Z,2.12
2019-03-31T14:54:08.489Z,1.72
2019-03-31T14:56:38.079Z,1.92
2019-03-31T14:59:07.748Z,2.25
2019-03-31T15:01:37.353Z,2.20
2019-03-31T15:04:06.954Z,2.15
2019-03-31T15:06:36.564Z,1.90
2019-03-31T15:09:08.762Z,1.90
2019-03-31T15:11:38.619Z,1.90
2019-03-31T15:14:08.203Z,2.20
2019-03-31T15:16:37.828Z,1.80
2019-03-31T15:19:07.427Z,2.10
2019-03-31T15:21:44.040Z,1.77
2019-03-31T15:24:08.351Z,1.90
2019-03-31T15:26:37.936Z,2.30
2019-03-31T15:29:07.531Z,2.30
2019-03-31T15:31:37.156Z,1.90
2019-03-31T15:34:07.660Z,1.98
2019-03-31T15:36:37.369Z,2.02
2019-03-31T15:39:09.543Z,2.30
2019-03-31T15:41:39.175Z,2.05
2019-03-31T15:44:08.786Z,2.25
2019-03-31T15:46:38.411Z,1.80
2019-03-31T15:49:08.016Z,1.80
2019-03-31T15:51:37.763Z,2.35
2019-03-31T15:54:07.425Z,2.80
2019-03-31T15:56:37.097Z,2.10
2019-03-31T15:59:06.688Z,2.30
2019-03-31T16:01:36.642Z,2.15
2019-03-31T16:04:06.242Z,1.85
2019-03-31T16:06:35.867Z,2.55
2019-03-31T16:09:22.354Z,2.10
2019-03-31T16:11:52.863Z,2.10
2019-03-31T16:14:10.714Z,1.80
2019-03-31T16:16:40.317Z,2.37
2019-03-31T16:19:09.940Z,1.45
2019-03-31T16:21:39.889Z,2.27
2019-03-31T16:24:09.573Z,2.25
2019-03-31T16:26:39.489Z,1.72
2019-03-31T16:29:09.093Z,2.08
2019-03-31T16:31:38.688Z,1.67
2019-03-31T16:34:08.303Z,1.95
2019-03-31T16:36:37.938Z,2.00
2019-03-31T16:39:08.204Z,2.15
2019-03-31T16:41:38.046Z,1.98
2019-03-31T16:44:07.748Z,1.70
2019-03-31T16:46:39.951Z,2.17
2019-03-31T16:49:08.794Z,1.57
2019-03-31T16:51:38.646Z,1.82
2019-03-31T16:54:08.262Z,1.90
2019-03-31T16:56:37.965Z,2.12
2019-03-31T16:59:08.341Z,2.50
2019-03-31T17:01:37.927Z,2.10
2019-03-31T17:04:07.801Z,1.95
2019-03-31T17:06:37.458Z,1.60
2019-03-31T17:09:08.712Z,2.30
2019-03-31T17:11:38.750Z,1.52
2019-03-31T17:14:08.359Z,1.40
2019-03-31T17:16:37.954Z,1.20
2019-03-31T17:19:07.627Z,1.75
2019-03-31T17:21:37.228Z,1.40
2019-03-31T17:24:06.834Z,1.50
2019-03-31T17:26:36.460Z,1.25
2019-03-31T17:29:06.402Z,1.15
2019-03-31T17:31:35.990Z,1.70
2019-03-31T17:34:05.651Z,1.47
2019-03-31T17:36:35.254Z,1.52
2019-03-31T17:39:06.930Z,1.98
2019-03-31T17:41:36.744Z,1.72
2019-03-31T17:44:06.396Z,2.30
2019-03-31T17:46:36.092Z,1.52
2019-03-31T17:49:05.757Z,1.70
2019-03-31T17:51:35.352Z,1.90
2019-03-31T17:54:06.428Z,1.70
2019-03-31T17:56:36.208Z,2.30
2019-03-31T17:59:08.724Z,1.55
2019-03-31T18:01:37.322Z,1.87
2019-03-31T18:04:06.946Z,1.90
2019-03-31T18:06:36.550Z,2.02
2019-03-31T18:09:09.218Z,1.90
2019-03-31T18:11:40.174Z,1.45
2019-03-31T18:14:09.788Z,2.05
2019-03-31T18:16:39.369Z,1.50
2019-03-31T18:19:08.992Z,2.30
2019-03-31T18:21:38.586Z,1.70
2019-03-31T18:24:08.188Z,1.72
2019-03-31T18:26:37.830Z,1.77
2019-03-31T18:29:07.415Z,2.30
2019-03-31T18:31:37.008Z,1.75
2019-03-31T18:34:07.689Z,1.80
2019-03-31T18:36:37.404Z,2.65
2019-03-31T18:39:08.630Z,1.80
2019-03-31T18:41:38.255Z,1.87
2019-03-31T18:44:07.861Z,1.98
2019-03-31T18:46:37.473Z,2.20
2019-03-31T18:49:07.095Z,1.95
2019-03-31T18:51:36.696Z,2.02
2019-03-31T18:54:15.209Z,1.98
2019-03-31T18:56:58.719Z,1.92
2019-03-31T18:59:32.684Z,1.92
2019-03-31T19:02:07.764Z,2.00
2019-03-31T19:04:38.989Z,2.05
2019-03-31T19:07:08.828Z,1.95
2019-03-31T19:09:57.792Z,2.47
2019-03-31T19:12:45.174Z,2.15
2019-03-31T19:15:14.610Z,1.87
2019-03-31T19:18:01.587Z,2.00
2019-03-31T19:20:38.424Z,1.95
2019-03-31T19:23:09.925Z,1.87
2019-03-31T19:25:45.105Z,1.70
2019-03-31T19:28:33.507Z,3.35
2019-03-31T19:31:06.668Z,2.40
2019-03-31T19:33:53.520Z,1.72
2019-03-31T19:36:24.782Z,2.10
2019-03-31T19:38:56.055Z,1.77
2019-03-31T19:41:27.358Z,2.65
2019-03-31T19:44:07.318Z,2.90
2019-03-31T19:46:56.537Z,2.33
2019-03-31T19:49:43.724Z,1.75
2019-03-31T19:52:23.865Z,1.80
2019-03-31T19:54:55.754Z,1.75
2019-03-31T19:57:35.991Z,2.22
2019-03-31T20:00:20.703Z,1.98
2019-03-31T20:03:04.050Z,1.95
2019-03-31T20:05:38.234Z,1.90
2019-03-31T20:08:24.658Z,1.62
2019-03-31T20:11:01.605Z,1.98
2019-03-31T20:13:30.972Z,2.98
2019-03-31T20:16:03.259Z,2.42
2019-03-31T20:18:50.344Z,2.35
2019-03-31T20:21:36.480Z,1.82
2019-03-31T20:24:09.294Z,2.30
2019-03-31T20:26:46.391Z,2.47
2019-03-31T20:29:17.757Z,1.98
2019-03-31T20:31:57.778Z,1.90
2019-03-31T20:34:41.165Z,2.35
2019-03-31T20:37:28.740Z,2.10
2019-03-31T20:40:05.911Z,2.85
2019-03-31T20:42:38.223Z,1.62
2019-03-31T20:45:09.230Z,1.50
2019-03-31T20:47:38.836Z,2.72
2019-03-31T20:50:08.650Z,2.22
2019-03-31T20:52:38.249Z,2.22
2019-03-31T20:55:16.130Z,1.90
2019-03-31T20:57:39.433Z,1.62
2019-03-31T21:00:10.097Z,2.33
2019-03-31T21:02:39.730Z,2.02
2019-03-31T21:05:09.944Z,2.27
2019-03-31T21:07:39.546Z,2.37
2019-03-31T21:10:09.371Z,2.05
2019-03-31T21:12:38.961Z,1.92
2019-03-31T21:15:08.695Z,2.15
2019-03-31T21:17:38.307Z,1.80
2019-03-31T21:20:08.229Z,1.77
2019-03-31T21:22:37.824Z,1.75
2019-03-31T21:25:07.727Z,1.42
2019-03-31T21:27:37.334Z,1.60
2019-03-31T21:30:09.137Z,2.15
2019-03-31T21:32:38.746Z,1.80
2019-03-31T21:35:08.541Z,2.25
2019-03-31T21:37:38.250Z,2.00
2019-03-31T21:40:08.413Z,1.87
2019-03-31T21:42:38.007Z,2.05
2019-03-31T21:45:07.839Z,2.17
2019-03-31T21:47:37.441Z,1.77
2019-03-31T21:50:08.070Z,1.57
2019-03-31T21:52:37.755Z,2.37
2019-03-31T21:55:07.999Z,2.05
2019-03-31T21:57:40.715Z,2.10
2019-03-31T22:00:12.111Z,1.67
2019-03-31T22:02:41.888Z,1.80
2019-03-31T22:05:12.185Z,1.80
2019-03-31T22:07:41.884Z,1.90
2019-03-31T22:10:12.243Z,2.85
2019-03-31T22:12:41.849Z,2.10
2019-03-31T22:15:11.649Z,1.92
2019-03-31T22:17:41.302Z,1.80
2019-03-31T22:20:11.257Z,1.70
2019-03-31T22:22:40.891Z,1.55
2019-03-31T22:25:12.077Z,1.40
2019-03-31T22:27:42.986Z,1.90
2019-03-31T22:30:12.708Z,2.25
2019-03-31T22:32:42.338Z,1.90
2019-03-31T22:35:11.965Z,1.87
2019-03-31T22:37:41.614Z,2.12
2019-03-31T22:40:11.297Z,1.87
2019-03-31T22:42:40.909Z,1.50
2019-03-31T22:45:10.669Z,1.98
2019-03-31T22:47:40.294Z,1.75
2019-03-31T22:50:10.772Z,1.70
2019-03-31T22:52:40.415Z,1.70
2019-03-31T22:55:10.109Z,1.40
2019-03-31T22:57:39.795Z,1.82
2019-03-31T23:00:13.166Z,1.62
2019-03-31T23:02:42.783Z,1.32
2019-03-31T23:05:12.512Z,1.20
2019-03-31T23:07:42.126Z,1.50
2019-03-31T23:10:11.789Z,1.20
2019-03-31T23:12:41.386Z,1.70
2019-03-31T23:15:11.347Z,1.50
2019-03-31T23:17:40.971Z,1.77
2019-03-31T23:20:10.720Z,1.40
2019-03-31T23:22:40.327Z,1.50
2019-03-31T23:25:10.317Z,1.22
2019-03-31T23:27:39.936Z,1.70
2019-03-31T23:30:11.214Z,1.35
2019-03-31T23:32:40.806Z,1.35
2019-03-31T23:35:10.736Z,1.20
2019-03-31T23:37:40.327Z,1.62
2019-03-31T23:40:10.060Z,1.20
2019-03-31T23:42:39.750Z,1.30
2019-03-31T23:45:09.809Z,1.47
2019-03-31T23:47:39.414Z,1.57
2019-03-31T23:50:09.096Z,1.90
2019-03-31T23:52:38.710Z,1.17
2019-03-31T23:55:08.372Z,1.55
2019-03-31T23:57:41.583Z,1.25
